Auchincruive, United Kingdom

3:02 PM GMT on February 21, 2017 (GMT +0000)
Ayr Scotland | | Change Station

Elev 59 ft 55.44 °N, 4.62 °W | Updated 16 seconds ago

Light Rain
Light Rain
52.2 °F
Feels Like 52.2 °F
N
1.3
Wind Variable Wind from SSW
Gusts 2.5 mph

Today
High -- | Low -- °F
--% Chance of Precip.
Yesterday
High -- | Low -- °F
Precip. -- in
Pressure 29.62 in
Visibility 3.7 miles
Clouds Few 900 ft
Scattered Clouds 1500 ft
Dew Point 51 °F
Humidity 96%
Rainfall 0.05 in
Snow Depth Not available.
7:27 AM 5:36 PM
Waning Crescent, 25% visible
METAR EGPK 211450Z 24017KT 6000 -RA FEW009 SCT015 11/09 Q1003
Pressure 29.62 in
Visibility 3.7 miles
Clouds Few 900 ft
Scattered Clouds 1500 ft
Dew Point 51 °F
Humidity 96%
Rainfall 0.05 in
Snow Depth Not available.
7:27 AM 5:36 PM
Waning Crescent, 25% visible
METAR EGPK 211450Z 24017KT 6000 -RA FEW009 SCT015 11/09 Q1003

Get Your Daily Forecast Email!

Thanks for signing up!

Be on the lookout for a verification email in your inbox.

You'll start receiving the daily forecast at 8 AM.

×

10-Day Weather Forecast

×

Almanac

Astronomy

Feb. 21, 2017 Rise Set
Actual Time
Civil Twilight
Nautical Twilight
Astronomical Twilight
Moon
Length of Visible Light
Length of Day
Tomorrow will be .
, % of the Moon is Illuminated

Today's Extremes

Country Highs Country Lows

Community

WunderPhotos

Upload Photos

1,962,540 photos uploaded!

WunderBlog® & News

Nearby

Air Quality

  Air Quality AQ Index Pollutant
Not available.

Snow Depth

Station Depth Elevation

Earthquake Activity

City Distance Mag. Time & Date
Minimum magnitude displayed is 2.5.

Coastal Water Temperatures

Place Temperature

Stations

Nearby Weather Stations

Station Location Temp. Windchill Dew Point Humidity Wind Precip. Elev Updated Type